Time;durP1;ratioP1;P1;durP2;ratioP2;P2;SDS_P1;SDS_P2;PMS_P1;PMS_P2;Temp;Humidity;BMP_temperature;BMP_pressure;BME280_temperature;BME280_humidity;BME280_pressure;Samples;Min_cycle;Max_cycle;Signal;HPM_P1;HPM_P2
2023/08/20 00:00:31;;;;;;;;;;;24.90;90.90;;;;;;5073940;28;20352;-64
2023/08/20 00:03:16;;;;;;;;;;;24.90;90.90;;;;;;5074335;28;19951;-64
2023/08/20 00:05:42;;;;;;;;;;;24.90;90.90;;;;;;5072432;28;20386;-64
2023/08/20 00:08:07;;;;;;;;;;;24.90;90.90;;;;;;5074474;28;19909;-64
2023/08/20 00:10:33;;;;;;;;;;;24.90;90.90;;;;;;5074081;28;19919;-64
2023/08/20 00:12:59;;;;;;;;;;;24.90;90.90;;;;;;5074390;28;19931;-63
2023/08/20 00:15:27;;;;;;;;;;;24.90;90.90;;;;;;5074661;28;19915;-65
2023/08/20 00:17:53;;;;;;;;;;;24.90;90.90;;;;;;5074056;28;19916;-65
2023/08/20 00:20:18;;;;;;;;;;;24.90;90.80;;;;;;5073989;28;19952;-64
2023/08/20 00:22:45;;;;;;;;;;;24.90;90.80;;;;;;5074550;28;19955;-65
2023/08/20 00:25:11;;;;;;;;;;;24.90;90.80;;;;;;5073805;28;19928;-64
2023/08/20 00:27:37;;;;;;;;;;;24.90;90.90;;;;;;5073783;28;19908;-64
2023/08/20 00:30:03;;;;;;;;;;;24.90;90.90;;;;;;5074169;28;19908;-65
2023/08/20 00:32:29;;;;;;;;;;;24.90;90.80;;;;;;5073810;28;19913;-63
2023/08/20 00:34:54;;;;;;;;;;;24.90;90.80;;;;;;5074159;28;19953;-65
2023/08/20 00:37:20;;;;;;;;;;;24.90;90.90;;;;;;5073792;28;20400;-64
2023/08/20 00:39:45;;;;;;;;;;;24.90;90.80;;;;;;5073791;28;20011;-64
2023/08/20 00:42:14;;;;;;;;;;;24.90;90.90;;;;;;5073789;28;19909;-64
2023/08/20 00:44:41;;;;;;;;;;;24.90;90.80;;;;;;5073553;28;19912;-64
2023/08/20 00:47:07;;;;;;;;;;;24.90;90.90;;;;;;5073846;28;19920;-64
2023/08/20 00:49:33;;;;;;;;;;;24.90;90.90;;;;;;5073972;28;20385;-64
2023/08/20 00:51:59;;;;;;;;;;;24.90;90.90;;;;;;5073726;28;19909;-65
2023/08/20 00:54:25;;;;;;;;;;;24.90;91.10;;;;;;5074250;28;20341;-64
2023/08/20 00:56:50;;;;;;;;;;;24.90;90.90;;;;;;5073890;28;20006;-64
2023/08/20 00:59:16;;;;;;;;;;;25.00;90.90;;;;;;5074162;28;19946;-64
2023/08/20 01:01:42;;;;;;;;;;;25.00;90.90;;;;;;5073811;28;20022;-64
2023/08/20 01:04:08;;;;;;;;;;;24.90;90.90;;;;;;5073512;28;20337;-64
2023/08/20 01:06:44;;;;;;;;;;;24.90;90.90;;;;;;5073438;28;20363;-64
2023/08/20 01:09:20;;;;;;;;;;;24.90;90.90;;;;;;5073903;28;19962;-64
2023/08/20 01:11:50;;;;;;;;;;;25.00;90.90;;;;;;5073515;28;19909;-65
2023/08/20 01:14:16;;;;;;;;;;;25.00;90.90;;;;;;5076268;28;19948;-64
2023/08/20 01:16:42;;;;;;;;;;;25.00;90.90;;;;;;5077673;28;19935;-65
2023/08/20 01:19:10;;;;;;;;;;;25.00;90.90;;;;;;5077632;28;19909;-65
2023/08/20 01:21:39;;;;;;;;;;;24.90;90.90;;;;;;5077688;28;20336;-64
2023/08/20 01:24:11;;;;;;;;;;;25.00;90.90;;;;;;5076365;28;20313;-64
2023/08/20 01:26:55;;;;;;;;;;;25.00;90.90;;;;;;5077428;28;19916;-64
2023/08/20 01:29:21;;;;;;;;;;;25.00;90.90;;;;;;5077446;28;19935;-65
2023/08/20 01:31:47;;;;;;;;;;;25.00;90.90;;;;;;5077090;28;19916;-65
2023/08/20 01:34:13;;;;;;;;;;;25.00;90.90;;;;;;5077341;28;19999;-65
2023/08/20 01:36:38;;;;;;;;;;;25.00;90.90;;;;;;5077275;28;19908;-64
2023/08/20 01:39:04;;;;;;;;;;;25.00;90.90;;;;;;5077276;28;19937;-64
2023/08/20 01:41:30;;;;;;;;;;;25.00;90.90;;;;;;5076971;28;20367;-65
2023/08/20 01:43:56;;;;;;;;;;;25.00;90.90;;;;;;5076931;28;19908;-65
2023/08/20 01:46:21;;;;;;;;;;;25.00;91.00;;;;;;5076605;28;20274;-65
2023/08/20 01:48:47;;;;;;;;;;;25.00;90.90;;;;;;5076787;28;19914;-65
2023/08/20 01:51:12;;;;;;;;;;;25.00;90.90;;;;;;5077015;28;19912;-65
2023/08/20 01:53:38;;;;;;;;;;;25.00;91.00;;;;;;5077024;28;19915;-65
2023/08/20 01:56:04;;;;;;;;;;;25.00;90.90;;;;;;5076647;28;20425;-65
2023/08/20 01:58:30;;;;;;;;;;;25.00;90.90;;;;;;5076998;28;19970;-65
2023/08/20 02:00:56;;;;;;;;;;;25.00;90.90;;;;;;5076576;28;20311;-64
2023/08/20 02:03:21;;;;;;;;;;;25.00;91.00;;;;;;5076566;28;19962;-65
2023/08/20 02:05:47;;;;;;;;;;;25.00;91.00;;;;;;5076457;28;19920;-65
2023/08/20 02:08:12;;;;;;;;;;;25.00;91.00;;;;;;5076474;28;19992;-64
2023/08/20 02:10:38;;;;;;;;;;;25.00;91.00;;;;;;5076476;28;20298;-64
2023/08/20 02:13:04;;;;;;;;;;;25.00;91.00;;;;;;5076644;28;19912;-64
2023/08/20 02:15:29;;;;;;;;;;;25.00;91.00;;;;;;5076774;28;19909;-65
2023/08/20 02:17:56;;;;;;;;;;;25.00;91.00;;;;;;5076905;28;20041;-64
2023/08/20 02:20:21;;;;;;;;;;;25.00;91.00;;;;;;5076542;28;19908;-64
2023/08/20 02:22:47;;;;;;;;;;;25.00;91.00;;;;;;5075632;28;19915;-64
2023/08/20 02:25:12;;;;;;;;;;;25.00;91.00;;;;;;5076135;28;20321;-65
2023/08/20 02:27:38;;;;;;;;;;;25.00;91.00;;;;;;5076119;28;19999;-64
2023/08/20 02:30:03;;;;;;;;;;;25.00;91.00;;;;;;5076371;28;20010;-63
2023/08/20 02:32:31;;;;;;;;;;;25.00;91.00;;;;;;5076414;28;19908;-64
2023/08/20 02:34:57;;;;;;;;;;;25.00;91.00;;;;;;5076061;28;19909;-65
2023/08/20 02:37:22;;;;;;;;;;;25.00;91.00;;;;;;5076204;28;19916;-64
2023/08/20 02:39:48;;;;;;;;;;;25.00;91.00;;;;;;5076186;28;20435;-64
2023/08/20 02:42:13;;;;;;;;;;;25.00;91.00;;;;;;5076077;28;19945;-65
2023/08/20 02:44:39;;;;;;;;;;;25.00;91.00;;;;;;5075911;28;20339;-65
2023/08/20 02:47:04;;;;;;;;;;;25.00;91.00;;;;;;5075676;28;19917;-64
2023/08/20 02:49:30;;;;;;;;;;;25.00;91.30;;;;;;5075915;28;20276;-65
2023/08/20 02:51:55;;;;;;;;;;;25.00;91.00;;;;;;5075592;28;19915;-65
2023/08/20 02:54:21;;;;;;;;;;;25.00;91.10;;;;;;5074594;28;19909;-65
2023/08/20 02:56:46;;;;;;;;;;;25.00;91.10;;;;;;5075574;28;20012;-65
2023/08/20 02:59:12;;;;;;;;;;;25.00;91.10;;;;;;5075555;28;19912;-66
2023/08/20 03:01:37;;;;;;;;;;;25.00;91.10;;;;;;5075460;28;19958;-64
2023/08/20 03:04:04;;;;;;;;;;;25.00;91.10;;;;;;5074348;28;19912;-63
2023/08/20 03:06:29;;;;;;;;;;;25.00;91.10;;;;;;5075320;28;20379;-64
2023/08/20 03:08:54;;;;;;;;;;;25.00;91.10;;;;;;5075607;28;19908;-65
2023/08/20 03:11:20;;;;;;;;;;;25.00;91.10;;;;;;5075186;28;20256;-64
2023/08/20 03:13:45;;;;;;;;;;;25.00;91.10;;;;;;5075496;28;19916;-64
2023/08/20 03:16:11;;;;;;;;;;;25.00;91.10;;;;;;5075108;28;19915;-64
2023/08/20 03:18:36;;;;;;;;;;;25.00;91.10;;;;;;5075176;28;19961;-64
2023/08/20 03:21:02;;;;;;;;;;;25.00;91.10;;;;;;5075443;28;20261;-64
2023/08/20 03:23:28;;;;;;;;;;;25.00;91.10;;;;;;5075351;28;19995;-64
2023/08/20 03:25:57;;;;;;;;;;;25.00;91.10;;;;;;5074939;28;19916;-64
2023/08/20 03:28:22;;;;;;;;;;;25.00;91.10;;;;;;5075174;28;19916;-65
2023/08/20 03:30:48;;;;;;;;;;;25.00;91.10;;;;;;5075515;28;19962;-64
2023/08/20 03:33:13;;;;;;;;;;;25.00;91.10;;;;;;5074889;28;19912;-65
2023/08/20 03:35:39;;;;;;;;;;;25.00;91.10;;;;;;5074519;28;19908;-64
2023/08/20 03:38:04;;;;;;;;;;;25.00;91.20;;;;;;5075101;28;19909;-64
2023/08/20 03:40:29;;;;;;;;;;;25.00;91.20;;;;;;5075065;28;19990;-64
2023/08/20 03:42:55;;;;;;;;;;;25.00;91.20;;;;;;5074962;28;20367;-64
2023/08/20 03:45:20;;;;;;;;;;;25.00;91.20;;;;;;5074323;28;19921;-64
2023/08/20 03:47:46;;;;;;;;;;;25.00;91.20;;;;;;5074554;28;19909;-64
2023/08/20 03:50:12;;;;;;;;;;;25.00;91.20;;;;;;5074811;28;19908;-64
2023/08/20 03:52:39;;;;;;;;;;;25.00;91.20;;;;;;5074524;28;20274;-64
2023/08/20 03:55:05;;;;;;;;;;;25.00;91.20;;;;;;5074402;28;20030;-64
2023/08/20 03:57:30;;;;;;;;;;;25.00;91.20;;;;;;5074820;28;19951;-64
2023/08/20 03:59:56;;;;;;;;;;;25.00;91.20;;;;;;5074426;28;20283;-64
2023/08/20 04:02:21;;;;;;;;;;;25.00;91.20;;;;;;5074667;28;19913;-65
2023/08/20 04:04:47;;;;;;;;;;;25.00;91.20;;;;;;5074247;28;19908;-64
2023/08/20 04:07:12;;;;;;;;;;;25.00;91.20;;;;;;5074575;28;20480;-64
2023/08/20 04:09:38;;;;;;;;;;;25.00;91.20;;;;;;5074544;28;19915;-64
2023/08/20 04:12:04;;;;;;;;;;;25.00;91.20;;;;;;5074612;28;19922;-61
2023/08/20 04:14:29;;;;;;;;;;;25.00;91.20;;;;;;5074378;28;19935;-65
2023/08/20 04:16:55;;;;;;;;;;;25.00;91.20;;;;;;5074341;28;19931;-65
2023/08/20 04:19:20;;;;;;;;;;;25.00;91.20;;;;;;5074706;28;19908;-65
2023/08/20 04:21:46;;;;;;;;;;;25.00;91.20;;;;;;5074063;28;20050;-64
2023/08/20 04:24:11;;;;;;;;;;;25.00;91.20;;;;;;5074289;28;19915;-65
2023/08/20 04:26:37;;;;;;;;;;;25.00;91.20;;;;;;5074150;28;20007;-64
2023/08/20 04:29:02;;;;;;;;;;;25.00;91.20;;;;;;5073927;28;20325;-65
2023/08/20 04:31:28;;;;;;;;;;;25.00;91.20;;;;;;5073888;28;19915;-65
2023/08/20 04:33:53;;;;;;;;;;;25.00;91.20;;;;;;5073693;28;20054;-64
2023/08/20 04:36:19;;;;;;;;;;;25.00;91.20;;;;;;5074147;28;19908;-64
2023/08/20 04:38:44;;;;;;;;;;;25.00;91.20;;;;;;5074165;28;19912;-64
2023/08/20 04:41:09;;;;;;;;;;;25.00;91.20;;;;;;5073891;28;19995;-64
2023/08/20 04:43:35;;;;;;;;;;;25.00;91.20;;;;;;5074148;28;19954;-64
2023/08/20 04:46:00;;;;;;;;;;;25.00;91.20;;;;;;5073891;28;19921;-64
2023/08/20 04:48:26;;;;;;;;;;;25.00;91.20;;;;;;5074098;28;20264;-64
2023/08/20 04:50:51;;;;;;;;;;;25.00;91.20;;;;;;5073736;28;19908;-64
2023/08/20 04:53:17;;;;;;;;;;;25.00;91.20;;;;;;5073665;28;19908;-64
2023/08/20 04:55:42;;;;;;;;;;;25.00;91.30;;;;;;5073719;28;19916;-64
2023/08/20 04:58:09;;;;;;;;;;;25.00;91.30;;;;;;5074009;28;19908;-64
2023/08/20 05:00:34;;;;;;;;;;;25.00;91.30;;;;;;5072685;28;20278;-62
2023/08/20 05:03:00;;;;;;;;;;;25.00;91.30;;;;;;5073931;28;19908;-65
2023/08/20 05:05:25;;;;;;;;;;;25.00;91.30;;;;;;5073760;28;19923;-64
2023/08/20 05:07:51;;;;;;;;;;;25.00;91.30;;;;;;5073573;28;19915;-64
2023/08/20 05:10:16;;;;;;;;;;;25.00;91.30;;;;;;5073583;28;19915;-64
2023/08/20 05:12:42;;;;;;;;;;;25.00;91.30;;;;;;5073839;28;19909;-64
2023/08/20 05:15:07;;;;;;;;;;;25.00;91.30;;;;;;5073514;28;19908;-64
2023/08/20 05:17:33;;;;;;;;;;;25.00;91.30;;;;;;5073788;28;19967;-65
2023/08/20 05:19:58;;;;;;;;;;;25.00;91.30;;;;;;5073768;28;19962;-65
2023/08/20 05:22:24;;;;;;;;;;;25.00;91.30;;;;;;5074055;28;19908;-64
2023/08/20 05:24:49;;;;;;;;;;;25.00;91.30;;;;;;5073391;28;20003;-65
2023/08/20 05:27:17;;;;;;;;;;;25.00;91.30;;;;;;5073610;28;20253;-64
2023/08/20 05:29:42;;;;;;;;;;;25.00;91.30;;;;;;5073516;28;19908;-64
2023/08/20 05:32:08;;;;;;;;;;;25.00;91.30;;;;;;5073309;28;20279;-64
2023/08/20 05:34:33;;;;;;;;;;;25.00;91.30;;;;;;5073627;28;19908;-64
2023/08/20 05:36:59;;;;;;;;;;;25.00;91.30;;;;;;5073294;28;19936;-65
2023/08/20 05:39:28;;;;;;;;;;;25.00;91.30;;;;;;5073280;28;19908;-65
2023/08/20 05:41:53;;;;;;;;;;;25.00;91.30;;;;;;5073529;28;19967;-64
2023/08/20 05:44:19;;;;;;;;;;;25.00;91.30;;;;;;5073629;28;19978;-64
2023/08/20 05:46:45;;;;;;;;;;;25.00;91.30;;;;;;5073563;28;19964;-64
2023/08/20 05:49:10;;;;;;;;;;;25.00;91.30;;;;;;5073499;28;19931;-64
2023/08/20 05:51:35;;;;;;;;;;;25.00;91.30;;;;;;5073514;28;19931;-63
2023/08/20 05:54:01;;;;;;;;;;;25.00;91.30;;;;;;5073242;28;19962;-65
2023/08/20 05:56:27;;;;;;;;;;;25.10;91.30;;;;;;5073196;28;19915;-65
2023/08/20 05:58:52;;;;;;;;;;;25.00;91.30;;;;;;5074729;28;20010;-64
2023/08/20 06:01:18;;;;;;;;;;;25.00;91.30;;;;;;5076986;28;19952;-64
2023/08/20 06:03:43;;;;;;;;;;;25.00;91.30;;;;;;5076916;28;20375;-64
2023/08/20 06:06:08;;;;;;;;;;;25.00;91.30;;;;;;5076440;28;20023;-63
2023/08/20 06:08:34;;;;;;;;;;;25.10;91.30;;;;;;5077136;28;19909;-64
2023/08/20 06:10:59;;;;;;;;;;;25.10;91.30;;;;;;5076831;28;19908;-64
2023/08/20 06:13:25;;;;;;;;;;;25.00;91.30;;;;;;5076322;28;20292;-64
2023/08/20 06:15:50;;;;;;;;;;;25.00;91.30;;;;;;5076385;28;19908;-64
2023/08/20 06:18:16;;;;;;;;;;;25.00;91.30;;;;;;5076335;28;19948;-64
2023/08/20 06:20:41;;;;;;;;;;;25.00;91.30;;;;;;5076674;28;20267;-64
2023/08/20 06:23:07;;;;;;;;;;;25.00;91.30;;;;;;5076598;28;19955;-63
2023/08/20 06:25:32;;;;;;;;;;;25.00;91.30;;;;;;5076428;28;20446;-64
2023/08/20 06:27:58;;;;;;;;;;;25.00;91.30;;;;;;5076433;28;19909;-64
2023/08/20 06:30:23;;;;;;;;;;;25.00;91.30;;;;;;5076140;28;19999;-65
2023/08/20 06:32:48;;;;;;;;;;;25.10;91.30;;;;;;5076255;28;20337;-64
2023/08/20 06:35:14;;;;;;;;;;;25.00;91.30;;;;;;5076261;28;20003;-64
2023/08/20 06:37:40;;;;;;;;;;;25.00;91.30;;;;;;5075941;28;19908;-64
2023/08/20 06:40:06;;;;;;;;;;;25.00;91.30;;;;;;5076212;28;20405;-64
2023/08/20 06:42:32;;;;;;;;;;;25.00;91.30;;;;;;5075788;28;19960;-64
2023/08/20 06:44:57;;;;;;;;;;;25.00;91.30;;;;;;5075701;28;19956;-64
2023/08/20 06:47:23;;;;;;;;;;;25.00;91.30;;;;;;5074551;28;19924;-64
2023/08/20 06:49:49;;;;;;;;;;;25.00;91.30;;;;;;5075597;28;20324;-64
2023/08/20 06:52:14;;;;;;;;;;;25.00;91.30;;;;;;5075754;28;19999;-64
2023/08/20 06:54:40;;;;;;;;;;;25.10;91.30;;;;;;5075811;28;20005;-64
2023/08/20 06:57:05;;;;;;;;;;;25.10;91.40;;;;;;5075914;28;19919;-63
2023/08/20 06:59:31;;;;;;;;;;;25.10;91.40;;;;;;5076382;28;19952;-64
2023/08/20 07:01:56;;;;;;;;;;;25.10;91.40;;;;;;5075469;28;19908;-65
2023/08/20 07:04:22;;;;;;;;;;;25.00;91.30;;;;;;5075932;28;19908;-64
2023/08/20 07:06:47;;;;;;;;;;;25.10;91.40;;;;;;5075177;28;20007;-64
2023/08/20 07:09:13;;;;;;;;;;;25.00;91.30;;;;;;5075785;28;20056;-64
2023/08/20 07:11:38;;;;;;;;;;;25.00;91.30;;;;;;5074974;28;19909;-63
2023/08/20 07:14:04;;;;;;;;;;;25.10;91.40;;;;;;5075535;28;19961;-62
2023/08/20 07:16:29;;;;;;;;;;;25.00;91.30;;;;;;5090319;28;19991;-64
2023/08/20 07:18:55;;;;;;;;;;;25.00;91.40;;;;;;5078273;28;20252;-64
2023/08/20 07:21:20;;;;;;;;;;;25.10;91.40;;;;;;5078935;28;19955;-65
2023/08/20 07:23:45;;;;;;;;;;;25.10;91.40;;;;;;5085988;28;19912;-64
2023/08/20 07:26:15;;;;;;;;;;;25.10;91.40;;;;;;5078498;28;19921;-64
2023/08/20 07:28:59;;;;;;;;;;;25.10;91.40;;;;;;5095503;28;19909;-64
2023/08/20 07:31:25;;;;;;;;;;;25.10;91.40;;;;;;5058746;28;19912;-65
2023/08/20 07:33:51;;;;;;;;;;;25.10;91.40;;;;;;5076009;28;20259;-64
2023/08/20 07:36:17;;;;;;;;;;;25.10;91.40;;;;;;5081638;28;19912;-65
2023/08/20 07:38:43;;;;;;;;;;;25.00;91.40;;;;;;5080684;28;20359;-64
2023/08/20 07:41:10;;;;;;;;;;;25.10;91.50;;;;;;5074487;28;20390;-64
2023/08/20 07:43:37;;;;;;;;;;;25.10;91.50;;;;;;5074706;28;19908;-65
2023/08/20 07:46:03;;;;;;;;;;;25.10;91.50;;;;;;5074604;28;19921;-65
2023/08/20 07:48:28;;;;;;;;;;;25.10;91.50;;;;;;5076585;28;20004;-64
2023/08/20 07:50:54;;;;;;;;;;;25.10;91.50;;;;;;5094176;28;20026;-65
2023/08/20 07:53:19;;;;;;;;;;;25.10;91.50;;;;;;5077171;28;19916;-62
2023/08/20 07:55:44;;;;;;;;;;;25.10;91.50;;;;;;5085561;28;20362;-63
2023/08/20 07:58:10;;;;;;;;;;;25.10;91.50;;;;;;5089104;28;19965;-61
2023/08/20 08:00:36;;;;;;;;;;;25.00;91.50;;;;;;5086130;28;20007;-64
2023/08/20 08:03:01;;;;;;;;;;;25.10;91.50;;;;;;5087320;28;20003;-62
2023/08/20 08:05:27;;;;;;;;;;;25.00;91.50;;;;;;5074765;28;19921;-62
2023/08/20 08:07:53;;;;;;;;;;;25.10;91.60;;;;;;5073496;28;19972;-60
2023/08/20 08:10:18;;;;;;;;;;;25.10;91.60;;;;;;5072009;28;20398;-62
2023/08/20 08:12:44;;;;;;;;;;;25.10;91.50;;;;;;5071636;28;19909;-63
2023/08/20 08:15:09;;;;;;;;;;;25.10;91.50;;;;;;5072212;28;20386;-58
2023/08/20 08:17:35;;;;;;;;;;;25.10;91.50;;;;;;5073223;28;19961;-65
2023/08/20 08:20:00;;;;;;;;;;;25.10;91.50;;;;;;5079363;28;20324;-62
2023/08/20 08:22:26;;;;;;;;;;;25.10;91.50;;;;;;5080598;28;19920;-58
2023/08/20 08:24:51;;;;;;;;;;;25.10;91.50;;;;;;5075612;28;19913;-64
2023/08/20 08:27:17;;;;;;;;;;;25.10;91.50;;;;;;5083395;28;19920;-65
2023/08/20 08:29:44;;;;;;;;;;;25.10;91.50;;;;;;5082600;28;19990;-64
2023/08/20 08:32:09;;;;;;;;;;;25.10;91.50;;;;;;5069969;28;19920;-65
2023/08/20 08:34:35;;;;;;;;;;;25.10;91.50;;;;;;5075982;28;19913;-65
2023/08/20 08:37:00;;;;;;;;;;;25.10;91.50;;;;;;5076446;28;19915;-61
2023/08/20 08:39:26;;;;;;;;;;;25.10;91.50;;;;;;5070327;28;19913;-61
2023/08/20 08:41:54;;;;;;;;;;;25.10;91.50;;;;;;5086625;28;19913;-61
2023/08/20 08:44:21;;;;;;;;;;;25.10;91.50;;;;;;5072228;28;19995;-62
2023/08/20 08:46:48;;;;;;;;;;;25.10;91.50;;;;;;5073495;28;19920;-63
2023/08/20 08:49:15;;;;;;;;;;;25.10;91.50;;;;;;5084034;28;20436;-64
2023/08/20 08:51:42;;;;;;;;;;;25.10;91.50;;;;;;5073706;28;20284;-60
2023/08/20 08:54:08;;;;;;;;;;;25.10;91.50;;;;;;5072225;28;19956;-63
2023/08/20 08:56:34;;;;;;;;;;;25.10;91.50;;;;;;5076819;28;19912;-64
2023/08/20 08:59:00;;;;;;;;;;;25.10;91.50;;;;;;5093816;28;19915;-63
2023/08/20 09:01:26;;;;;;;;;;;25.10;91.50;;;;;;5093741;28;19908;-63
2023/08/20 09:03:51;;;;;;;;;;;25.10;91.50;;;;;;5093335;28;19931;-63
2023/08/20 09:06:17;;;;;;;;;;;25.10;91.50;;;;;;5083613;28;19920;-63
2023/08/20 09:08:42;;;;;;;;;;;25.10;91.50;;;;;;5073224;28;19909;-65
2023/08/20 09:11:07;;;;;;;;;;;25.10;91.50;;;;;;5073544;28;19916;-67
2023/08/20 09:13:33;;;;;;;;;;;25.10;91.60;;;;;;5070245;28;19912;-64
2023/08/20 09:15:58;;;;;;;;;;;25.20;91.60;;;;;;5077572;28;19919;-67
2023/08/20 09:18:24;;;;;;;;;;;25.10;91.60;;;;;;5072707;28;19909;-67
2023/08/20 09:20:49;;;;;;;;;;;25.10;91.60;;;;;;5076835;28;19913;-81
2023/08/20 09:23:15;;;;;;;;;;;25.20;91.60;;;;;;5076935;28;19913;-73
2023/08/20 09:25:41;;;;;;;;;;;25.10;91.60;;;;;;5073242;28;20015;-71
2023/08/20 09:28:07;;;;;;;;;;;25.10;91.60;;;;;;5073443;28;19912;-72
2023/08/20 09:30:32;;;;;;;;;;;25.10;91.60;;;;;;5072877;28;19916;-68
2023/08/20 09:33:05;;;;;;;;;;;25.10;91.60;;;;;;5073719;28;19952;-69
2023/08/20 09:35:30;;;;;;;;;;;25.10;91.60;;;;;;5076732;28;19908;-73
2023/08/20 09:38:14;;;;;;;;;;;25.10;91.60;;;;;;5087648;28;19919;-69
2023/08/20 09:40:40;;;;;;;;;;;25.10;91.60;;;;;;5088750;28;19915;-73
2023/08/20 09:43:08;;;;;;;;;;;25.10;91.60;;;;;;5076493;28;19916;-69
2023/08/20 09:45:34;;;;;;;;;;;25.20;91.60;;;;;;5075283;28;20434;-76
2023/08/20 09:48:02;;;;;;;;;;;25.20;91.60;;;;;;5076702;28;19909;-66
2023/08/20 09:50:29;;;;;;;;;;;25.10;91.60;;;;;;5076882;28;19920;-64
2023/08/20 09:52:58;;;;;;;;;;;25.10;91.60;;;;;;5076886;28;20050;-69
2023/08/20 09:55:28;;;;;;;;;;;25.10;91.60;;;;;;5076348;28;19963;-77
2023/08/20 09:57:53;;;;;;;;;;;25.10;91.60;;;;;;5081697;28;19916;-71
2023/08/20 10:00:20;;;;;;;;;;;25.20;91.60;;;;;;5096916;28;19915;-68
2023/08/20 10:02:46;;;;;;;;;;;25.20;91.60;;;;;;5096860;28;19908;-72
2023/08/20 10:05:12;;;;;;;;;;;25.20;91.60;;;;;;5087280;28;19918;-71
2023/08/20 10:07:38;;;;;;;;;;;25.20;91.60;;;;;;5079243;28;19912;-71
2023/08/20 10:10:05;;;;;;;;;;;25.20;91.60;;;;;;5076440;28;20010;-68
2023/08/20 10:12:31;;;;;;;;;;;25.20;91.60;;;;;;5076309;28;19908;-66
2023/08/20 10:14:57;;;;;;;;;;;25.20;91.60;;;;;;5082630;28;19912;-71
2023/08/20 10:17:23;;;;;;;;;;;25.20;91.60;;;;;;5096462;28;20014;-74
2023/08/20 10:19:48;;;;;;;;;;;25.20;91.60;;;;;;5083255;28;20000;-77
2023/08/20 10:22:14;;;;;;;;;;;25.20;91.60;;;;;;5079192;28;19913;-76
2023/08/20 10:24:41;;;;;;;;;;;25.20;91.60;;;;;;5079219;28;19912;-65
2023/08/20 10:27:10;;;;;;;;;;;25.20;91.60;;;;;;5075565;28;20377;-74
2023/08/20 10:29:40;;;;;;;;;;;25.20;91.90;;;;;;5077755;28;19912;-73
2023/08/20 10:32:10;;;;;;;;;;;25.20;91.60;;;;;;5088311;28;19923;-67
2023/08/20 10:34:37;;;;;;;;;;;25.20;91.60;;;;;;5074919;28;20002;-69
2023/08/20 10:37:08;;;;;;;;;;;25.20;91.60;;;;;;5084803;28;19937;-67
2023/08/20 10:39:33;;;;;;;;;;;25.20;91.60;;;;;;5092605;28;20394;-67
2023/08/20 10:42:28;;;;;;;;;;;25.20;91.60;;;;;;5090423;28;19919;-65
2023/08/20 10:45:00;;;;;;;;;;;25.20;91.60;;;;;;5089218;28;19920;-71
2023/08/20 10:47:35;;;;;;;;;;;25.20;91.60;;;;;;5087687;28;19920;-76
2023/08/20 10:50:01;;;;;;;;;;;25.20;91.60;;;;;;5075848;28;19912;-70
2023/08/20 10:52:27;;;;;;;;;;;25.20;91.60;;;;;;5075497;28;19912;-65
2023/08/20 10:54:52;;;;;;;;;;;25.20;91.60;;;;;;5077430;28;19966;-72
2023/08/20 10:57:21;;;;;;;;;;;25.30;91.70;;;;;;5074983;28;19913;-69
2023/08/20 10:59:55;;;;;;;;;;;25.20;91.60;;;;;;5075077;28;19935;-74
2023/08/20 11:02:21;;;;;;;;;;;25.20;91.60;;;;;;5081729;28;19912;-69
2023/08/20 11:04:47;;;;;;;;;;;25.20;91.60;;;;;;5079208;28;19958;-63
2023/08/20 11:07:17;;;;;;;;;;;25.20;91.60;;;;;;5086907;28;19927;-69
2023/08/20 11:09:44;;;;;;;;;;;25.20;91.60;;;;;;5095680;28;20305;-61
2023/08/20 11:12:10;;;;;;;;;;;25.20;91.90;;;;;;5091308;28;20395;-62
2023/08/20 11:14:35;;;;;;;;;;;25.20;91.60;;;;;;5088516;28;19912;-65
2023/08/20 11:17:01;;;;;;;;;;;25.20;91.90;;;;;;5078663;28;19912;-61
2023/08/20 11:19:28;;;;;;;;;;;25.30;91.70;;;;;;5074225;28;19912;-62
2023/08/20 11:21:54;;;;;;;;;;;25.20;91.60;;;;;;5073229;28;19920;-62
2023/08/20 11:24:20;;;;;;;;;;;25.20;91.60;;;;;;5076150;28;19912;-69
2023/08/20 11:26:46;;;;;;;;;;;25.20;91.60;;;;;;5095179;28;19916;-63
2023/08/20 11:29:13;;;;;;;;;;;25.30;91.70;;;;;;5095209;28;19909;-69
2023/08/20 11:31:38;;;;;;;;;;;25.30;91.70;;;;;;5093055;28;20275;-65
2023/08/20 11:34:04;;;;;;;;;;;25.20;91.60;;;;;;5077607;28;19913;-71
2023/08/20 11:36:31;;;;;;;;;;;25.30;91.70;;;;;;5086962;28;20386;-73
2023/08/20 11:38:56;;;;;;;;;;;25.20;91.60;;;;;;5095051;28;20002;-73
2023/08/20 11:41:22;;;;;;;;;;;25.20;91.70;;;;;;5082472;28;19963;-72
2023/08/20 11:43:48;;;;;;;;;;;25.30;91.70;;;;;;5076945;28;19911;-73
2023/08/20 11:46:15;;;;;;;;;;;25.20;91.70;;;;;;5076891;28;19947;-72
2023/08/20 11:49:00;;;;;;;;;;;25.30;91.70;;;;;;5074590;28;19915;-72
2023/08/20 11:51:26;;;;;;;;;;;25.30;91.90;;;;;;5076927;28;19915;-72
2023/08/20 11:53:51;;;;;;;;;;;25.20;91.70;;;;;;5092735;28;19918;-72
2023/08/20 11:56:17;;;;;;;;;;;25.20;91.70;;;;;;5091102;28;20366;-71
2023/08/20 11:58:42;;;;;;;;;;;25.20;91.70;;;;;;5087061;28;19974;-73
2023/08/20 12:01:08;;;;;;;;;;;25.20;91.70;;;;;;5084213;28;19912;-72
2023/08/20 12:03:37;;;;;;;;;;;25.20;91.60;;;;;;5080708;28;20015;-72
2023/08/20 12:06:16;;;;;;;;;;;25.20;91.60;;;;;;5086673;28;19916;-71
2023/08/20 12:08:42;;;;;;;;;;;25.20;91.70;;;;;;5094877;28;19916;-71
2023/08/20 12:11:07;;;;;;;;;;;25.20;91.60;;;;;;5083006;28;19908;-72
2023/08/20 12:13:33;;;;;;;;;;;25.20;91.60;;;;;;5082375;28;20010;-73
2023/08/20 12:15:58;;;;;;;;;;;25.20;91.60;;;;;;5076138;28;19909;-69
2023/08/20 12:18:24;;;;;;;;;;;25.20;91.60;;;;;;5074784;28;19909;-72
2023/08/20 12:20:49;;;;;;;;;;;25.20;91.60;;;;;;5072671;28;20356;-72
2023/08/20 12:23:15;;;;;;;;;;;25.20;91.60;;;;;;5080407;28;19948;-73
2023/08/20 12:25:40;;;;;;;;;;;25.20;91.60;;;;;;5093809;28;19916;-73
2023/08/20 12:28:06;;;;;;;;;;;25.20;91.90;;;;;;5093817;28;19916;-71
2023/08/20 12:30:32;;;;;;;;;;;25.20;91.60;;;;;;5094243;28;19908;-72
2023/08/20 12:32:58;;;;;;;;;;;25.20;91.60;;;;;;5093962;28;19908;-73
2023/08/20 12:35:23;;;;;;;;;;;25.20;91.60;;;;;;5094108;28;19919;-74
2023/08/20 12:37:48;;;;;;;;;;;25.20;91.60;;;;;;5093237;28;20367;-73
2023/08/20 12:40:14;;;;;;;;;;;25.20;91.60;;;;;;5075788;28;19913;-71
2023/08/20 12:42:40;;;;;;;;;;;25.20;91.60;;;;;;5073581;28;20347;-73
2023/08/20 12:45:08;;;;;;;;;;;25.20;91.60;;;;;;5073378;28;19931;-71
2023/08/20 12:47:36;;;;;;;;;;;25.20;91.60;;;;;;5073486;28;20314;-70
2023/08/20 12:50:04;;;;;;;;;;;25.20;91.60;;;;;;5073820;28;20397;-72
2023/08/20 12:52:29;;;;;;;;;;;25.20;91.60;;;;;;5074101;28;19908;-73
2023/08/20 12:54:55;;;;;;;;;;;25.20;91.60;;;;;;5077807;28;19920;-72
2023/08/20 12:57:20;;;;;;;;;;;25.20;91.60;;;;;;5092193;28;19908;-71
2023/08/20 12:59:46;;;;;;;;;;;25.20;91.50;;;;;;5088627;28;19955;-74
2023/08/20 13:02:12;;;;;;;;;;;25.20;91.50;;;;;;5064351;28;19916;-72
2023/08/20 13:04:37;;;;;;;;;;;25.20;91.50;;;;;;5084667;28;19912;-65
2023/08/20 13:07:03;;;;;;;;;;;25.20;91.50;;;;;;5075979;28;19924;-66
2023/08/20 13:09:29;;;;;;;;;;;25.20;91.50;;;;;;5081945;28;20364;-72
2023/08/20 13:11:56;;;;;;;;;;;25.20;91.50;;;;;;5094565;28;19908;-75
2023/08/20 13:14:22;;;;;;;;;;;25.20;91.50;;;;;;5092515;28;19962;-69
2023/08/20 13:16:48;;;;;;;;;;;25.20;91.50;;;;;;5090057;28;19909;-72
2023/08/20 13:19:14;;;;;;;;;;;25.20;91.50;;;;;;5077464;28;19919;-72
2023/08/20 13:21:39;;;;;;;;;;;25.20;91.50;;;;;;5087450;28;19915;-72
2023/08/20 13:24:05;;;;;;;;;;;25.20;91.50;;;;;;5097633;28;20293;-69
2023/08/20 13:26:31;;;;;;;;;;;25.20;91.50;;;;;;5066853;28;20008;-69
2023/08/20 13:28:56;;;;;;;;;;;25.20;91.50;;;;;;5096772;28;20001;-71
2023/08/20 13:31:22;;;;;;;;;;;25.20;91.40;;;;;;5088602;28;19975;-72
2023/08/20 13:33:49;;;;;;;;;;;25.20;91.40;;;;;;5077102;28;19908;-71
2023/08/20 13:36:15;;;;;;;;;;;25.20;91.40;;;;;;5076783;28;19912;-72
2023/08/20 13:38:41;;;;;;;;;;;25.20;91.40;;;;;;5077081;28;19909;-73
2023/08/20 13:41:07;;;;;;;;;;;25.20;91.40;;;;;;5076688;28;19962;-70
2023/08/20 13:43:32;;;;;;;;;;;25.20;91.40;;;;;;5076956;28;19912;-68
2023/08/20 13:45:57;;;;;;;;;;;25.20;91.40;;;;;;5076357;28;20019;-71
2023/08/20 13:48:23;;;;;;;;;;;25.20;91.40;;;;;;5076575;28;20410;-71
2023/08/20 13:50:48;;;;;;;;;;;25.20;91.40;;;;;;5076908;28;19962;-70
2023/08/20 13:53:14;;;;;;;;;;;25.20;91.40;;;;;;5076883;28;20360;-73
2023/08/20 13:55:39;;;;;;;;;;;25.20;91.40;;;;;;5077178;28;20259;-73
2023/08/20 13:58:05;;;;;;;;;;;25.20;91.50;;;;;;5076530;28;19909;-70
2023/08/20 14:00:30;;;;;;;;;;;25.20;91.50;;;;;;5076752;28;20355;-72
2023/08/20 14:02:57;;;;;;;;;;;25.20;91.50;;;;;;5076388;28;20006;-71
2023/08/20 14:05:22;;;;;;;;;;;25.20;91.50;;;;;;5076703;28;19908;-71
2023/08/20 14:07:48;;;;;;;;;;;25.20;91.50;;;;;;5076564;28;19916;-71
2023/08/20 14:10:13;;;;;;;;;;;25.20;91.50;;;;;;5076351;28;19919;-70